Time;durP1;ratioP1;P1;durP2;ratioP2;P2;SDS_P1;SDS_P2;PMS_P1;PMS_P2;Temp;Humidity;BMP_temperature;BMP_pressure;BME280_temperature;BME280_humidity;BME280_pressure;Samples;Min_cycle;Max_cycle;Signal;HPM_P1;HPM_P2
2022/04/27 00:01:03;;;;;;;25.90;17.33;;;;;;;;;;5016406;28;20021;-74
2022/04/27 00:03:32;;;;;;;29.65;19.00;;;;;;;;;;5016839;28;20038;-75
2022/04/27 00:05:59;;;;;;;26.70;17.40;;;;;;;;;;4998406;28;20069;-75
2022/04/27 00:08:25;;;;;;;27.63;18.40;;;;;;;;;;4998837;28;20510;-77
2022/04/27 00:10:50;;;;;;;26.48;18.55;;;;;;;;;;5016462;28;20024;-74
2022/04/27 00:13:17;;;;;;;25.92;17.00;;;;;;;;;;5016087;28;20050;-76
2022/04/27 00:16:02;;;;;;;26.45;17.48;;;;;;;;;;5031405;28;20092;-75
2022/04/27 00:18:28;;;;;;;28.05;17.67;;;;;;;;;;5031194;28;20037;-78
2022/04/27 00:20:56;;;;;;;28.98;17.70;;;;;;;;;;5016478;28;20022;-78
2022/04/27 00:23:26;;;;;;;29.75;18.88;;;;;;;;;;5016107;28;20060;-77
2022/04/27 00:25:53;;;;;;;25.38;16.75;;;;;;;;;;4982598;28;20033;-77
2022/04/27 00:28:19;;;;;;;27.27;16.83;;;;;;;;;;4998579;28;20040;-76
2022/04/27 00:30:45;;;;;;;24.38;16.08;;;;;;;;;;4982241;28;20060;-76
2022/04/27 00:33:12;;;;;;;25.67;17.05;;;;;;;;;;5016201;28;20493;-72
2022/04/27 00:35:39;;;;;;;23.55;15.85;;;;;;;;;;4999337;28;20030;-72
2022/04/27 00:38:08;;;;;;;27.85;16.77;;;;;;;;;;5015951;28;20080;-72
2022/04/27 00:40:35;;;;;;;25.20;15.68;;;;;;;;;;4998418;28;20029;-71
2022/04/27 00:43:01;;;;;;;25.25;16.48;;;;;;;;;;5027794;28;20158;-72
2022/04/27 00:45:28;;;;;;;23.05;16.35;;;;;;;;;;4982019;28;20030;-72
2022/04/27 00:47:55;;;;;;;26.05;17.02;;;;;;;;;;4981732;28;20045;-73
2022/04/27 00:50:23;;;;;;;27.00;15.95;;;;;;;;;;4982542;28;20030;-73
2022/04/27 00:52:49;;;;;;;24.83;16.30;;;;;;;;;;5029786;28;20053;-73
2022/04/27 00:55:17;;;;;;;24.48;16.38;;;;;;;;;;4998424;28;20032;-72
2022/04/27 00:57:48;;;;;;;25.88;15.93;;;;;;;;;;5031098;28;20336;-76
2022/04/27 01:00:15;;;;;;;23.48;16.48;;;;;;;;;;5030473;28;20041;-76
2022/04/27 01:02:47;;;;;;;23.30;15.75;;;;;;;;;;5015337;28;20037;-75
2022/04/27 01:05:16;;;;;;;25.60;16.98;;;;;;;;;;4997366;28;20046;-75
2022/04/27 01:07:42;;;;;;;29.33;18.25;;;;;;;;;;5015136;28;20030;-75
2022/04/27 01:10:09;;;;;;;25.80;17.60;;;;;;;;;;4997910;28;20053;-75
2022/04/27 01:12:40;;;;;;;27.45;16.55;;;;;;;;;;5040681;28;20056;-72
2022/04/27 01:15:13;;;;;;;23.17;16.52;;;;;;;;;;5001403;28;20041;-72
2022/04/27 01:17:43;;;;;;;24.10;15.88;;;;;;;;;;5033596;28;20083;-78
2022/04/27 01:20:08;;;;;;;25.57;16.13;;;;;;;;;;5000669;28;20032;-78
2022/04/27 01:22:35;;;;;;;24.50;16.30;;;;;;;;;;5034668;28;20033;-78
2022/04/27 01:25:03;;;;;;;26.00;16.88;;;;;;;;;;5017244;28;20480;-79
2022/04/27 01:27:29;;;;;;;26.67;17.92;;;;;;;;;;5049669;28;20489;-79
2022/04/27 01:29:56;;;;;;;28.00;18.02;;;;;;;;;;5033040;28;20021;-79
2022/04/27 01:32:23;;;;;;;25.88;17.35;;;;;;;;;;5000188;28;20033;-78
2022/04/27 01:34:49;;;;;;;22.75;15.43;;;;;;;;;;5015636;28;20075;-79
2022/04/27 01:39:58;;;;;;;22.70;14.32;;;;;;;;;;5016744;28;20034;-72
2022/04/27 01:42:25;;;;;;;23.15;15.40;;;;;;;;;;5016780;28;20405;-72
2022/04/27 01:44:51;;;;;;;22.10;14.07;;;;;;;;;;5049832;28;20083;-69
2022/04/27 01:47:17;;;;;;;21.40;14.05;;;;;;;;;;5049616;28;20553;-75
2022/04/27 01:49:43;;;;;;;19.38;13.55;;;;;;;;;;5049722;28;20128;-75
2022/04/27 01:54:55;;;;;;;21.77;13.63;;;;;;;;;;5030336;28;20190;-75
2022/04/27 01:57:23;;;;;;;22.90;14.25;;;;;;;;;;5016333;28;20021;-75
2022/04/27 01:59:49;;;;;;;20.45;14.35;;;;;;;;;;5015915;28;20029;-76
2022/04/27 02:02:15;;;;;;;20.13;13.50;;;;;;;;;;5032748;28;20083;-71
2022/04/27 02:04:43;;;;;;;19.75;13.18;;;;;;;;;;5016283;28;20049;-71
2022/04/27 02:07:12;;;;;;;15.15;11.63;;;;;;;;;;5000563;28;20049;-71
2022/04/27 02:09:39;;;;;;;18.25;12.57;;;;;;;;;;5049710;28;20034;-71
2022/04/27 02:12:06;;;;;;;18.83;12.35;;;;;;;;;;5049130;28;20068;-71
2022/04/27 02:14:35;;;;;;;18.05;12.15;;;;;;;;;;5016664;28;20025;-71
2022/04/27 02:17:02;;;;;;;17.65;11.85;;;;;;;;;;5000231;28;20040;-71
2022/04/27 02:19:28;;;;;;;18.10;12.45;;;;;;;;;;5016398;28;20029;-70
2022/04/27 02:21:53;;;;;;;16.73;11.85;;;;;;;;;;5016427;28;20029;-71
2022/04/27 02:24:19;;;;;;;15.07;11.32;;;;;;;;;;5032833;28;20095;-71
2022/04/27 02:26:45;;;;;;;13.70;10.75;;;;;;;;;;5049523;28;20049;-70
2022/04/27 02:29:11;;;;;;;16.55;11.40;;;;;;;;;;5049127;28;20036;-71
2022/04/27 02:31:37;;;;;;;20.08;12.40;;;;;;;;;;4999808;28;20025;-71
2022/04/27 02:34:03;;;;;;;17.52;11.95;;;;;;;;;;5033842;28;20104;-70
2022/04/27 02:36:32;;;;;;;19.73;14.02;;;;;;;;;;5048997;28;20018;-69
2022/04/27 02:38:59;;;;;;;21.05;13.88;;;;;;;;;;5032409;28;20029;-69
2022/04/27 02:41:28;;;;;;;20.35;13.23;;;;;;;;;;5049098;28;20026;-69
2022/04/27 02:43:55;;;;;;;20.83;14.15;;;;;;;;;;5032397;28;20053;-69
2022/04/27 02:46:20;;;;;;;19.77;12.65;;;;;;;;;;5049045;28;20018;-70
2022/04/27 02:51:55;;;;;;;19.00;13.07;;;;;;;;;;5046542;28;20029;-70
2022/04/27 02:54:30;;;;;;;17.45;12.05;;;;;;;;;;5015941;28;20034;-79
2022/04/27 02:57:02;;;;;;;18.58;11.68;;;;;;;;;;5015585;28;20113;-74
2022/04/27 02:59:28;;;;;;;16.63;11.02;;;;;;;;;;5048888;28;20120;-75
2022/04/27 03:01:55;;;;;;;13.85;10.18;;;;;;;;;;5015522;28;20117;-74
2022/04/27 03:04:21;;;;;;;13.55;10.05;;;;;;;;;;5033834;28;20501;-74
2022/04/27 03:06:47;;;;;;;14.93;10.45;;;;;;;;;;5048828;28;20017;-74
2022/04/27 03:09:13;;;;;;;14.88;11.52;;;;;;;;;;5015858;28;20029;-74
2022/04/27 03:11:41;;;;;;;15.57;10.40;;;;;;;;;;5033428;28;20052;-73
2022/04/27 03:14:28;;;;;;;14.90;10.52;;;;;;;;;;5037033;28;20501;-77
2022/04/27 03:16:54;;;;;;;15.07;10.57;;;;;;;;;;5037113;28;20038;-77
2022/04/27 03:19:23;;;;;;;17.05;11.57;;;;;;;;;;5052765;28;20025;-78
2022/04/27 03:21:48;;;;;;;18.30;12.48;;;;;;;;;;5019148;28;20492;-79
2022/04/27 03:24:15;;;;;;;20.20;13.38;;;;;;;;;;5018963;28;20104;-80
2022/04/27 03:26:40;;;;;;;22.27;15.00;;;;;;;;;;5052050;28;20029;-80
2022/04/27 03:29:06;;;;;;;23.55;15.48;;;;;;;;;;5051965;28;20454;-79
2022/04/27 03:31:35;;;;;;;22.83;14.80;;;;;;;;;;5019220;28;20029;-77
2022/04/27 03:34:00;;;;;;;24.02;14.50;;;;;;;;;;5018816;28;20010;-77
2022/04/27 03:36:28;;;;;;;20.80;14.20;;;;;;;;;;5052346;28;20025;-77
2022/04/27 03:38:54;;;;;;;25.67;16.45;;;;;;;;;;5018742;28;20457;-77
2022/04/27 03:41:20;;;;;;;22.60;14.73;;;;;;;;;;5051934;28;20032;-76
2022/04/27 03:43:47;;;;;;;26.17;14.93;;;;;;;;;;5018569;28;20021;-75
2022/04/27 03:46:13;;;;;;;18.23;13.18;;;;;;;;;;5052281;28;20029;-76
2022/04/27 03:48:39;;;;;;;20.75;13.50;;;;;;;;;;5019102;28;20060;-76
2022/04/27 03:51:07;;;;;;;17.58;12.65;;;;;;;;;;5035166;28;20034;-76
2022/04/27 03:53:33;;;;;;;18.88;12.70;;;;;;;;;;5051468;28;20381;-75
2022/04/27 03:55:58;;;;;;;18.17;12.90;;;;;;;;;;5018302;28;20036;-76
2022/04/27 03:58:24;;;;;;;22.08;13.52;;;;;;;;;;5018262;28;20484;-79
2022/04/27 04:00:49;;;;;;;38.40;32.70;;;;;;;;;;5018304;28;20494;-77
2022/04/27 04:03:20;;;;;;;36.53;29.20;;;;;;;;;;5051319;28;20107;-76
2022/04/27 04:05:45;;;;;;;27.65;21.98;;;;;;;;;;5001893;28;20040;-76
2022/04/27 04:08:11;;;;;;;23.23;17.45;;;;;;;;;;5051263;28;20021;-75
2022/04/27 04:10:38;;;;;;;19.45;15.68;;;;;;;;;;5018030;28;20041;-75
2022/04/27 04:13:03;;;;;;;21.17;16.08;;;;;;;;;;5047620;28;20073;-75
2022/04/27 04:15:47;;;;;;;32.63;20.83;;;;;;;;;;5036218;28;20131;-75
2022/04/27 04:18:33;;;;;;;23.38;17.55;;;;;;;;;;5036506;28;20067;-74
2022/04/27 04:21:31;;;;;;;23.77;16.43;;;;;;;;;;5067725;28;20021;-74
2022/04/27 04:24:03;;;;;;;26.27;15.95;;;;;;;;;;5067030;28;20264;-74
2022/04/27 04:29:16;;;;;;;20.20;14.75;;;;;;;;;;5034983;28;20476;-75
2022/04/27 04:31:41;;;;;;;19.27;14.10;;;;;;;;;;5033918;28;20018;-75
2022/04/27 04:34:09;;;;;;;21.33;13.57;;;;;;;;;;5035702;28;20109;-74
2022/04/27 04:36:35;;;;;;;19.25;12.38;;;;;;;;;;5035426;28;20021;-74
2022/04/27 04:39:01;;;;;;;17.20;11.50;;;;;;;;;;5034044;28;20470;-74
2022/04/27 04:41:30;;;;;;;20.05;10.32;;;;;;;;;;5017929;28;20049;-74
2022/04/27 04:43:57;;;;;;;13.63;10.32;;;;;;;;;;5033721;28;20033;-74
2022/04/27 04:46:23;;;;;;;18.17;11.75;;;;;;;;;;5017538;28;20017;-75
2022/04/27 04:49:02;;;;;;;17.05;13.02;;;;;;;;;;5035058;28;20025;-75
2022/04/27 04:51:31;;;;;;;17.77;12.20;;;;;;;;;;5035202;28;20029;-75
2022/04/27 04:54:16;;;;;;;19.60;13.95;;;;;;;;;;5034928;28;20072;-75
2022/04/27 04:56:54;;;;;;;22.88;15.93;;;;;;;;;;5034083;28;20079;-76
2022/04/27 04:59:24;;;;;;;27.77;18.50;;;;;;;;;;5066963;28;20017;-76
2022/04/27 05:02:19;;;;;;;27.13;17.92;;;;;;;;;;4981160;28;20142;-76
2022/04/27 05:04:47;;;;;;;21.58;14.90;;;;;;;;;;5033599;28;20038;-76
2022/04/27 05:07:37;;;;;;;21.40;14.25;;;;;;;;;;5034746;28;20022;-76
2022/04/27 05:10:21;;;;;;;19.17;12.80;;;;;;;;;;5035095;28;20400;-76
2022/04/27 05:13:08;;;;;;;16.75;12.23;;;;;;;;;;5034619;28;20124;-76
2022/04/27 05:15:49;;;;;;;17.02;12.00;;;;;;;;;;5066519;28;20501;-76
2022/04/27 05:18:23;;;;;;;17.02;11.93;;;;;;;;;;5033432;28;20025;-76
2022/04/27 05:21:10;;;;;;;15.02;11.00;;;;;;;;;;5034534;28;20029;-76
2022/04/27 05:23:44;;;;;;;15.93;11.20;;;;;;;;;;5034522;28;20030;-76
2022/04/27 05:26:34;;;;;;;14.80;10.48;;;;;;;;;;5033181;28;20500;-76
2022/04/27 05:32:27;;;;;;;11.88;8.18;;;;;;;;;;5010830;28;20051;-75
2022/04/27 05:35:28;;;;;;;12.65;9.20;;;;;;;;;;5031229;28;20037;-76
2022/04/27 05:38:12;;;;;;;10.60;7.93;;;;;;;;;;5019075;28;20090;-77
2022/04/27 05:41:07;;;;;;;11.30;7.70;;;;;;;;;;5032901;28;20116;-77
2022/04/27 05:43:53;;;;;;;9.73;8.48;;;;;;;;;;5012959;28;20128;-77
2022/04/27 05:46:51;;;;;;;11.63;8.65;;;;;;;;;;5032802;28;20026;-76
2022/04/27 05:49:39;;;;;;;9.75;7.47;;;;;;;;;;5033842;28;20045;-76
2022/04/27 05:52:13;;;;;;;11.18;8.10;;;;;;;;;;5032855;28;20033;-76
2022/04/27 05:54:57;;;;;;;12.48;9.25;;;;;;;;;;5034331;28;20129;-75
2022/04/27 05:57:36;;;;;;;13.97;9.53;;;;;;;;;;5033974;28;20505;-75
2022/04/27 06:00:14;;;;;;;11.63;8.77;;;;;;;;;;5034046;28;20022;-75
2022/04/27 06:02:46;;;;;;;12.48;10.05;;;;;;;;;;5032455;28;20493;-75
2022/04/27 06:05:15;;;;;;;14.15;9.20;;;;;;;;;;5032382;28;20044;-75
2022/04/27 06:07:41;;;;;;;11.13;10.00;;;;;;;;;;5065928;28;20059;-77
2022/04/27 06:10:11;;;;;;;11.80;9.40;;;;;;;;;;5016724;28;20117;-79
2022/04/27 06:12:46;;;;;;;9.90;8.60;;;;;;;;;;5032174;28;20479;-79
2022/04/27 06:15:30;;;;;;;10.63;9.52;;;;;;;;;;5033813;28;20071;-80
2022/04/27 06:17:58;;;;;;;10.60;8.38;;;;;;;;;;5032231;28;20108;-80
2022/04/27 06:20:24;;;;;;;9.32;8.18;;;;;;;;;;5065752;28;20105;-79
2022/04/27 06:22:49;;;;;;;12.43;8.90;;;;;;;;;;5032211;28;20079;-77
2022/04/27 06:25:16;;;;;;;11.15;8.15;;;;;;;;;;5065504;28;20083;-80
2022/04/27 06:27:46;;;;;;;10.30;7.50;;;;;;;;;;5065638;28;20036;-80
2022/04/27 06:30:11;;;;;;;8.85;7.45;;;;;;;;;;5032179;28;20477;-83
2022/04/27 06:32:38;;;;;;;10.48;7.53;;;;;;;;;;5065370;28;20021;-81
2022/04/27 06:35:05;;;;;;;8.70;7.68;;;;;;;;;;5065483;28;20433;-81
2022/04/27 06:37:32;;;;;;;11.68;7.78;;;;;;;;;;5032280;28;20025;-82
2022/04/27 06:39:58;;;;;;;10.15;8.63;;;;;;;;;;5032541;28;20025;-78
2022/04/27 06:42:24;;;;;;;10.05;8.98;;;;;;;;;;5065348;28;20021;-77
2022/04/27 06:45:08;;;;;;;9.32;8.00;;;;;;;;;;5033838;28;20094;-77
2022/04/27 06:47:52;;;;;;;7.75;6.95;;;;;;;;;;5036721;28;20057;-77
2022/04/27 06:50:36;;;;;;;7.80;7.00;;;;;;;;;;5037621;28;20064;-79
2022/04/27 06:53:30;;;;;;;8.00;7.25;;;;;;;;;;4983550;28;20065;-78
2022/04/27 06:56:16;;;;;;;7.85;6.80;;;;;;;;;;5037421;28;20044;-79
2022/04/27 06:59:04;;;;;;;7.57;6.88;;;;;;;;;;5028221;28;20046;-78
2022/04/27 07:01:37;;;;;;;6.22;5.63;;;;;;;;;;5052406;28;20030;-78
2022/04/27 07:04:11;;;;;;;6.32;5.72;;;;;;;;;;5034837;28;20048;-78
2022/04/27 07:06:37;;;;;;;6.32;5.82;;;;;;;;;;5035166;28;20028;-78
2022/04/27 07:09:03;;;;;;;8.90;6.70;;;;;;;;;;5036748;28;20013;-79
2022/04/27 07:11:29;;;;;;;6.80;6.13;;;;;;;;;;5035795;28;20041;-78
2022/04/27 07:13:55;;;;;;;6.75;6.15;;;;;;;;;;5036004;28;20380;-79
2022/04/27 07:16:20;;;;;;;7.45;6.72;;;;;;;;;;5035800;28;20022;-79
2022/04/27 07:18:46;;;;;;;6.95;6.28;;;;;;;;;;5035711;28;20099;-79
2022/04/27 07:21:11;;;;;;;6.93;6.20;;;;;;;;;;5035733;28;20080;-79
2022/04/27 07:23:37;;;;;;;8.00;7.20;;;;;;;;;;5035649;28;20074;-79
2022/04/27 07:26:02;;;;;;;7.53;6.93;;;;;;;;;;5034409;28;20025;-79
2022/04/27 07:28:28;;;;;;;7.65;6.97;;;;;;;;;;5035577;28;20405;-79
2022/04/27 07:30:53;;;;;;;7.55;6.82;;;;;;;;;;5050918;28;20385;-79
2022/04/27 07:33:20;;;;;;;8.35;6.95;;;;;;;;;;5035429;28;20159;-77
2022/04/27 07:35:45;;;;;;;7.07;6.38;;;;;;;;;;5035394;28;20396;-79
2022/04/27 07:38:11;;;;;;;9.27;7.43;;;;;;;;;;5067324;28;20026;-77
2022/04/27 07:40:37;;;;;;;8.30;7.13;;;;;;;;;;5035337;28;20099;-77
2022/04/27 07:43:02;;;;;;;8.75;7.72;;;;;;;;;;5035236;28;20043;-78
2022/04/27 07:45:28;;;;;;;7.35;6.65;;;;;;;;;;5034073;28;20040;-77
2022/04/27 07:47:54;;;;;;;7.90;7.00;;;;;;;;;;5035107;28;20041;-77
2022/04/27 07:50:20;;;;;;;7.60;6.90;;;;;;;;;;5067128;28;20029;-77
2022/04/27 07:52:45;;;;;;;7.22;6.32;;;;;;;;;;5035032;28;20140;-77
2022/04/27 07:55:11;;;;;;;8.03;7.23;;;;;;;;;;5035031;28;20021;-78
2022/04/27 07:57:37;;;;;;;9.25;6.68;;;;;;;;;;5034524;28;20278;-78
2022/04/27 08:00:04;;;;;;;7.55;6.32;;;;;;;;;;5034354;28;20029;-78
2022/04/27 08:02:37;;;;;;;7.47;6.78;;;;;;;;;;5033782;28;20087;-77
2022/04/27 08:05:02;;;;;;;8.68;7.03;;;;;;;;;;5034856;28;20025;-78
2022/04/27 08:07:35;;;;;;;8.85;7.82;;;;;;;;;;5033595;28;20119;-78
2022/04/27 08:10:04;;;;;;;8.10;7.13;;;;;;;;;;5034745;28;20124;-78
2022/04/27 08:12:31;;;;;;;9.40;8.48;;;;;;;;;;5034471;28;20050;-79
2022/04/27 08:14:56;;;;;;;8.60;7.70;;;;;;;;;;5034541;28;20028;-78
2022/04/27 08:17:22;;;;;;;7.93;7.07;;;;;;;;;;5034695;28;20112;-82
2022/04/27 08:19:47;;;;;;;8.65;7.47;;;;;;;;;;5033429;28;20025;-82
2022/04/27 08:22:14;;;;;;;7.22;6.53;;;;;;;;;;5034539;28;20481;-82
2022/04/27 08:24:40;;;;;;;8.70;7.85;;;;;;;;;;5033316;28;20413;-81
2022/04/27 08:27:05;;;;;;;9.48;8.57;;;;;;;;;;5066451;28;20045;-81
2022/04/27 08:29:30;;;;;;;9.52;8.15;;;;;;;;;;5034427;28;20429;-71
2022/04/27 08:31:56;;;;;;;8.32;7.40;;;;;;;;;;5034526;28;20033;-73
2022/04/27 08:34:24;;;;;;;9.13;8.23;;;;;;;;;;5034269;28;20017;-72
2022/04/27 08:36:50;;;;;;;9.73;7.03;;;;;;;;;;5034268;28;20029;-80
2022/04/27 08:39:17;;;;;;;9.10;6.88;;;;;;;;;;5034233;28;20354;-82
2022/04/27 08:41:42;;;;;;;7.97;7.05;;;;;;;;;;5034199;28;20520;-77
2022/04/27 08:44:08;;;;;;;8.95;7.57;;;;;;;;;;5049480;28;20022;-77
2022/04/27 08:46:34;;;;;;;9.02;8.20;;;;;;;;;;5034028;28;20120;-77
2022/04/27 08:48:59;;;;;;;8.23;7.40;;;;;;;;;;5034068;28;20096;-77
2022/04/27 08:51:28;;;;;;;9.35;7.65;;;;;;;;;;5033975;28;20555;-77
2022/04/27 08:53:53;;;;;;;7.82;7.13;;;;;;;;;;5032926;28;20032;-77
2022/04/27 08:56:19;;;;;;;8.95;7.53;;;;;;;;;;5033824;28;20033;-77
2022/04/27 08:58:44;;;;;;;9.55;8.52;;;;;;;;;;5033854;28;20088;-77
2022/04/27 09:01:10;;;;;;;9.60;7.97;;;;;;;;;;5065785;28;20025;-77
2022/04/27 09:03:36;;;;;;;9.57;8.65;;;;;;;;;;5033760;28;20022;-77
2022/04/27 09:06:04;;;;;;;8.02;7.20;;;;;;;;;;5034195;28;20088;-77
2022/04/27 09:08:40;;;;;;;10.90;7.60;;;;;;;;;;5034738;28;20064;-78
2022/04/27 09:11:18;;;;;;;6.97;6.07;;;;;;;;;;5034513;28;20104;-77
2022/04/27 09:13:48;;;;;;;7.75;6.47;;;;;;;;;;5034748;28;20034;-77
2022/04/27 09:16:13;;;;;;;20.17;13.63;;;;;;;;;;5034682;28;20021;-77
2022/04/27 09:21:58;;;;;;;10.60;8.80;;;;;;;;;;5034565;28;20029;-77
2022/04/27 09:24:23;;;;;;;10.00;9.05;;;;;;;;;;5066448;28;20589;-77
2022/04/27 09:27:22;;;;;;;30.98;21.92;;;;;;;;;;5016804;28;20045;-77
2022/04/27 09:29:54;;;;;;;31.20;18.35;;;;;;;;;;5022460;28;20068;-77
2022/04/27 09:32:19;;;;;;;11.18;9.13;;;;;;;;;;5034227;28;20485;-77
2022/04/27 09:34:45;;;;;;;19.35;14.00;;;;;;;;;;5016595;28;20223;-77
2022/04/27 09:37:30;;;;;;;18.40;14.23;;;;;;;;;;5032680;28;20071;-77
2022/04/27 09:40:06;;;;;;;34.20;19.98;;;;;;;;;;5031986;28;20061;-77
2022/04/27 09:42:43;;;;;;;15.10;12.73;;;;;;;;;;5032638;28;20033;-77
2022/04/27 09:45:15;;;;;;;13.13;11.15;;;;;;;;;;5031558;28;20116;-77
2022/04/27 09:48:08;;;;;;;9.15;8.00;;;;;;;;;;5032737;28;20033;-77
2022/04/27 09:50:46;;;;;;;5.93;5.43;;;;;;;;;;5031125;28;20041;-77
2022/04/27 09:53:12;;;;;;;9.60;7.50;;;;;;;;;;5065785;28;20025;-77
2022/04/27 09:55:42;;;;;;;8.48;7.47;;;;;;;;;;5033991;28;20075;-78
2022/04/27 09:58:09;;;;;;;7.47;6.68;;;;;;;;;;5033919;28;20030;-77
2022/04/27 10:00:36;;;;;;;13.23;8.07;;;;;;;;;;5033856;28;20100;-77
2022/04/27 10:03:02;;;;;;;7.63;6.93;;;;;;;;;;5065827;28;20029;-77
2022/04/27 10:05:28;;;;;;;7.68;6.90;;;;;;;;;;5033429;28;20051;-77
2022/04/27 10:07:56;;;;;;;8.10;6.65;;;;;;;;;;5033995;28;20026;-78
2022/04/27 10:10:21;;;;;;;31.10;18.98;;;;;;;;;;5033699;28;20072;-77
2022/04/27 10:12:48;;;;;;;10.20;8.55;;;;;;;;;;5065138;28;20041;-77
2022/04/27 10:15:14;;;;;;;8.77;7.32;;;;;;;;;;5016296;28;20367;-77
2022/04/27 10:17:40;;;;;;;8.05;7.25;;;;;;;;;;5033932;28;20029;-77
2022/04/27 10:20:32;;;;;;;7.93;7.15;;;;;;;;;;5033568;28;20036;-77
2022/04/27 10:23:16;;;;;;;15.10;7.65;;;;;;;;;;5031188;28;20421;-77
2022/04/27 10:25:42;;;;;;;7.97;6.75;;;;;;;;;;5033603;28;20044;-77
2022/04/27 10:28:18;;;;;;;8.35;6.97;;;;;;;;;;5034163;28;20018;-76
2022/04/27 10:30:44;;;;;;;6.60;5.95;;;;;;;;;;5033723;28;20041;-77
2022/04/27 10:33:09;;;;;;;7.63;6.72;;;;;;;;;;5032189;28;20025;-77
2022/04/27 10:35:36;;;;;;;7.47;6.70;;;;;;;;;;5033218;28;20018;-75
2022/04/27 10:38:02;;;;;;;7.78;6.97;;;;;;;;;;5033435;28;20020;-75
2022/04/27 10:40:29;;;;;;;6.75;6.13;;;;;;;;;;5032202;28;20041;-76
2022/04/27 10:43:00;;;;;;;7.95;6.43;;;;;;;;;;5033508;28;20032;-75
2022/04/27 10:45:27;;;;;;;7.00;5.82;;;;;;;;;;5033482;28;20108;-75
2022/04/27 10:47:52;;;;;;;7.95;7.15;;;;;;;;;;5033282;28;20025;-75
2022/04/27 10:50:31;;;;;;;7.35;6.45;;;;;;;;;;5033277;28;20539;-75
2022/04/27 10:52:59;;;;;;;7.68;6.97;;;;;;;;;;5033298;28;20041;-75
2022/04/27 10:55:42;;;;;;;7.57;6.82;;;;;;;;;;5032100;28;20477;-75
2022/04/27 10:58:15;;;;;;;6.50;5.95;;;;;;;;;;5033411;28;20472;-75
2022/04/27 11:01:02;;;;;;;5.05;4.65;;;;;;;;;;5032263;28;20120;-76
2022/04/27 11:03:28;;;;;;;5.90;5.40;;;;;;;;;;5033252;28;20451;-74
2022/04/27 11:05:56;;;;;;;6.72;6.13;;;;;;;;;;5033271;28;20064;-75
2022/04/27 11:08:22;;;;;;;6.78;6.07;;;;;;;;;;5033161;28;20033;-77
2022/04/27 11:10:48;;;;;;;6.28;5.70;;;;;;;;;;5033341;28;20453;-75
2022/04/27 11:13:14;;;;;;;8.25;7.53;;;;;;;;;;5031716;28;20045;-73
2022/04/27 11:15:39;;;;;;;10.77;7.75;;;;;;;;;;5033271;28;20033;-76
2022/04/27 11:18:04;;;;;;;6.80;6.10;;;;;;;;;;5048839;28;20029;-75
2022/04/27 11:20:33;;;;;;;6.32;5.72;;;;;;;;;;5033005;28;20453;-75
2022/04/27 11:23:00;;;;;;;6.47;5.93;;;;;;;;;;5033145;28;20121;-75
2022/04/27 11:25:27;;;;;;;6.90;6.30;;;;;;;;;;5015709;28;20032;-75
2022/04/27 11:27:53;;;;;;;7.22;6.53;;;;;;;;;;5032952;28;20029;-75
2022/04/27 11:30:20;;;;;;;6.95;6.25;;;;;;;;;;5032909;28;20029;-75
2022/04/27 11:32:47;;;;;;;7.28;6.57;;;;;;;;;;5033981;28;20037;-73
2022/04/27 11:35:12;;;;;;;8.68;6.30;;;;;;;;;;5036548;28;20094;-72
2022/04/27 11:37:37;;;;;;;8.38;6.88;;;;;;;;;;5036531;28;20072;-73
2022/04/27 11:40:19;;;;;;;6.40;5.72;;;;;;;;;;5036425;28;20095;-71
2022/04/27 11:42:46;;;;;;;8.10;6.03;;;;;;;;;;5036413;28;20029;-72
2022/04/27 11:45:12;;;;;;;7.78;6.72;;;;;;;;;;5068417;28;20028;-71
2022/04/27 11:47:37;;;;;;;6.95;6.13;;;;;;;;;;5036393;28;20037;-72
2022/04/27 11:50:03;;;;;;;8.32;5.72;;;;;;;;;;5036340;28;20072;-72
2022/04/27 11:52:36;;;;;;;7.18;6.53;;;;;;;;;;5036210;28;20037;-71
2022/04/27 11:55:07;;;;;;;6.18;5.57;;;;;;;;;;5036296;28;20079;-72
2022/04/27 11:57:32;;;;;;;6.32;5.72;;;;;;;;;;5034852;28;20036;-71
2022/04/27 11:59:58;;;;;;;5.88;5.13;;;;;;;;;;5036115;28;20097;-72
2022/04/27 12:02:24;;;;;;;5.63;5.15;;;;;;;;;;5036106;28;20072;-72
2022/04/27 12:04:51;;;;;;;5.22;4.80;;;;;;;;;;5035973;28;20021;-71
2022/04/27 12:07:17;;;;;;;5.07;4.68;;;;;;;;;;5035888;28;20052;-71
2022/04/27 12:09:58;;;;;;;4.95;4.55;;;;;;;;;;5036001;28;20029;-72
2022/04/27 12:12:28;;;;;;;5.32;4.07;;;;;;;;;;5035573;28;20394;-71
2022/04/27 12:14:55;;;;;;;4.45;4.15;;;;;;;;;;5035864;28;20461;-71
2022/04/27 12:17:39;;;;;;;4.85;4.40;;;;;;;;;;5034585;28;20013;-71
2022/04/27 12:20:05;;;;;;;5.22;4.82;;;;;;;;;;5035797;28;20025;-70
2022/04/27 12:22:30;;;;;;;5.88;5.28;;;;;;;;;;5034554;28;20469;-71
2022/04/27 12:25:00;;;;;;;4.53;4.13;;;;;;;;;;5035701;28;20484;-71
2022/04/27 12:27:26;;;;;;;73.80;35.10;;;;;;;;;;5034488;28;20425;-72
2022/04/27 12:30:02;;;;;;;29.13;16.00;;;;;;;;;;5034205;28;20401;-72
2022/04/27 12:32:30;;;;;;;10.90;8.10;;;;;;;;;;5035386;28;20045;-72
2022/04/27 12:37:46;;;;;;;11.52;8.05;;;;;;;;;;5034159;28;20045;-72
2022/04/27 12:40:15;;;;;;;8.40;7.60;;;;;;;;;;5035336;28;20028;-71
2022/04/27 12:42:59;;;;;;;9.93;9.02;;;;;;;;;;5035304;28;20492;-72
2022/04/27 12:45:25;;;;;;;14.80;12.20;;;;;;;;;;5034395;28;20030;-72
2022/04/27 12:47:51;;;;;;;6.78;5.50;;;;;;;;;;5034317;28;20065;-72
2022/04/27 12:50:17;;;;;;;8.25;6.45;;;;;;;;;;5034095;28;20040;-71
2022/04/27 12:52:45;;;;;;;5.70;5.20;;;;;;;;;;5034019;28;20022;-72
2022/04/27 12:55:12;;;;;;;7.05;3.97;;;;;;;;;;5034008;28;20030;-72
2022/04/27 12:57:44;;;;;;;4.40;4.00;;;;;;;;;;5033996;28;20014;-72
2022/04/27 13:00:11;;;;;;;4.60;3.80;;;;;;;;;;5033868;28;20035;-72
2022/04/27 13:02:36;;;;;;;2.97;2.80;;;;;;;;;;5033907;28;20029;-71
2022/04/27 13:05:02;;;;;;;3.83;3.63;;;;;;;;;;5033810;28;20036;-71
2022/04/27 13:07:27;;;;;;;4.10;3.80;;;;;;;;;;5033708;28;20017;-71
2022/04/27 13:12:37;;;;;;;4.30;3.95;;;;;;;;;;5033360;28;20060;-71
2022/04/27 13:15:03;;;;;;;6.03;4.13;;;;;;;;;;5033594;28;20029;-72
2022/04/27 13:17:29;;;;;;;4.25;3.85;;;;;;;;;;5033488;28;20025;-71
2022/04/27 13:19:54;;;;;;;5.75;4.60;;;;;;;;;;5033508;28;20033;-72
2022/04/27 13:22:20;;;;;;;4.10;3.80;;;;;;;;;;5034330;28;20438;-72
2022/04/27 13:24:45;;;;;;;4.60;4.13;;;;;;;;;;5034480;28;20029;-72
2022/04/27 13:27:11;;;;;;;12.93;8.73;;;;;;;;;;5034031;28;20028;-74
2022/04/27 13:29:36;;;;;;;7.82;5.05;;;;;;;;;;5033968;28;20034;-73
2022/04/27 13:32:01;;;;;;;4.90;4.15;;;;;;;;;;5034067;28;20026;-73
2022/04/27 13:34:27;;;;;;;6.43;5.70;;;;;;;;;;5033463;28;20022;-77
2022/04/27 13:36:55;;;;;;;10.23;7.53;;;;;;;;;;5033381;28;20017;-76
2022/04/27 13:39:20;;;;;;;10.82;7.05;;;;;;;;;;5033235;28;20080;-77
2022/04/27 13:41:45;;;;;;;13.48;12.02;;;;;;;;;;5034339;28;20025;-77
2022/04/27 13:44:11;;;;;;;14.60;9.18;;;;;;;;;;5034352;28;20457;-77
2022/04/27 13:46:36;;;;;;;7.55;6.85;;;;;;;;;;5034384;28;20082;-77
2022/04/27 13:49:03;;;;;;;9.70;8.70;;;;;;;;;;5034093;28;20037;-77
2022/04/27 13:51:29;;;;;;;12.27;8.95;;;;;;;;;;5034197;28;20021;-77
2022/04/27 13:53:57;;;;;;;5.43;4.97;;;;;;;;;;5032864;28;20083;-77
2022/04/27 13:56:22;;;;;;;13.30;10.68;;;;;;;;;;5031140;28;20021;-77
2022/04/27 13:58:48;;;;;;;20.52;16.77;;;;;;;;;;5031980;28;20401;-77
2022/04/27 14:01:13;;;;;;;6.13;5.45;;;;;;;;;;5032308;28;20105;-77
2022/04/27 14:03:38;;;;;;;6.72;5.90;;;;;;;;;;5032755;28;20048;-77
2022/04/27 14:06:03;;;;;;;5.43;5.00;;;;;;;;;;5032711;28;20021;-77
2022/04/27 14:08:29;;;;;;;12.18;8.85;;;;;;;;;;5032693;28;20040;-77
2022/04/27 14:10:56;;;;;;;9.00;8.13;;;;;;;;;;5032638;28;20040;-77
2022/04/27 14:13:24;;;;;;;6.40;5.78;;;;;;;;;;5031168;28;20054;-77
2022/04/27 14:18:34;;;;;;;19.00;13.60;;;;;;;;;;5032468;28;20029;-77
2022/04/27 14:21:00;;;;;;;252.27;120.15;;;;;;;;;;5031353;28;20017;-77
2022/04/27 14:23:26;;;;;;;49.58;33.13;;;;;;;;;;5032363;28;20041;-77
2022/04/27 14:25:52;;;;;;;28.35;25.27;;;;;;;;;;5032436;28;20091;-77
2022/04/27 14:28:17;;;;;;;26.65;21.45;;;;;;;;;;5032366;28;20430;-77
2022/04/27 14:30:43;;;;;;;8.02;7.32;;;;;;;;;;5031167;28;20018;-77
2022/04/27 14:33:09;;;;;;;19.75;13.13;;;;;;;;;;5032327;28;20084;-77
2022/04/27 14:35:35;;;;;;;33.33;21.10;;;;;;;;;;5032365;28;20059;-77
2022/04/27 14:38:01;;;;;;;18.98;11.55;;;;;;;;;;5030903;28;20496;-77
2022/04/27 14:40:26;;;;;;;96.15;44.97;;;;;;;;;;5032319;28;20010;-77
2022/04/27 14:42:52;;;;;;;47.05;23.75;;;;;;;;;;5032556;28;20041;-77
2022/04/27 14:45:18;;;;;;;35.92;17.92;;;;;;;;;;5032306;28;20021;-77
2022/04/27 14:47:44;;;;;;;49.88;25.40;;;;;;;;;;5064365;28;20465;-77
2022/04/27 14:50:10;;;;;;;25.80;14.65;;;;;;;;;;5032185;28;20046;-77
2022/04/27 14:52:36;;;;;;;49.30;24.85;;;;;;;;;;5032188;28;20068;-76
2022/04/27 14:55:02;;;;;;;11.57;8.20;;;;;;;;;;5032198;28;20076;-77
2022/04/27 14:57:27;;;;;;;9.82;7.30;;;;;;;;;;5031034;28;20045;-77
2022/04/27 14:59:54;;;;;;;43.13;28.98;;;;;;;;;;5064197;28;20018;-77
2022/04/27 15:02:22;;;;;;;30.70;18.02;;;;;;;;;;5032049;28;20041;-77
2022/04/27 15:04:47;;;;;;;17.77;13.25;;;;;;;;;;5032153;28;20392;-77
2022/04/27 15:07:13;;;;;;;19.65;13.23;;;;;;;;;;5032238;28;20040;-77